createdAt,value
2018-08-25T00:01:54.033Z,95952.33
2018-08-25T00:04:23.977Z,95941.06
2018-08-25T00:06:53.737Z,95945.27
2018-08-25T00:09:23.509Z,95937.36
2018-08-25T00:11:53.335Z,95934.11
2018-08-25T00:14:23.151Z,95922.14
2018-08-25T00:16:52.993Z,95924.11
2018-08-25T00:19:22.787Z,95931.96
2018-08-25T00:21:52.591Z,95938.31
2018-08-25T00:24:22.481Z,95935.49
2018-08-25T00:26:52.301Z,95932.63
2018-08-25T00:29:22.257Z,95928.95
2018-08-25T00:31:52.909Z,95926.72
2018-08-25T00:34:23.626Z,95928.09
2018-08-25T00:36:53.391Z,95920.09
2018-08-25T00:39:23.200Z,95919.31
2018-08-25T00:41:53.020Z,95916.30
2018-08-25T00:44:22.848Z,95912.77
2018-08-25T00:46:52.687Z,95912.59
2018-08-25T00:49:22.628Z,95910.21
2018-08-25T00:51:52.415Z,95903.08
2018-08-25T00:54:22.560Z,95900.70
2018-08-25T00:56:52.408Z,95897.98
2018-08-25T00:59:22.766Z,95896.34
2018-08-25T01:01:52.778Z,95889.83
2018-08-25T01:04:22.906Z,95895.23
2018-08-25T01:06:52.720Z,95888.36
2018-08-25T01:09:22.621Z,95888.20
2018-08-25T01:11:52.469Z,95892.84
2018-08-25T01:14:22.635Z,95893.78
2018-08-25T01:16:52.498Z,95891.47
2018-08-25T01:19:22.335Z,95892.41
2018-08-25T01:21:52.176Z,95895.16
2018-08-25T01:24:22.351Z,95892.33
2018-08-25T01:26:52.546Z,95892.84
2018-08-25T01:29:22.734Z,95895.34
2018-08-25T01:31:52.609Z,95893.08
2018-08-25T01:34:22.435Z,95892.33
2018-08-25T01:36:52.228Z,95891.96
2018-08-25T01:39:22.004Z,95892.90
2018-08-25T01:41:51.758Z,95893.05
2018-08-25T01:44:21.574Z,95893.83
2018-08-25T01:46:51.456Z,95900.81
2018-08-25T01:49:21.298Z,95901.23
2018-08-25T01:51:51.122Z,95906.13
2018-08-25T01:54:21.278Z,95892.20
2018-08-25T01:56:51.314Z,95886.28
2018-08-25T01:59:21.317Z,95885.42
2018-08-25T02:01:51.420Z,95885.19
2018-08-25T02:04:21.270Z,95887.58
2018-08-25T02:06:51.428Z,95883.70
2018-08-25T02:09:21.296Z,95883.95
2018-08-25T02:11:51.127Z,95882.25
2018-08-25T02:14:20.902Z,95884.92
2018-08-25T02:16:50.776Z,95878.13
2018-08-25T02:19:20.889Z,95874.59
2018-08-25T02:21:51.102Z,95872.81
2018-08-25T02:24:21.188Z,95871.94
2018-08-25T02:26:50.966Z,95874.27
2018-08-25T02:29:20.782Z,95871.07
2018-08-25T02:31:50.660Z,95867.30
2018-08-25T02:34:20.504Z,95869.20
2018-08-25T02:36:50.374Z,95868.30
2018-08-25T02:39:20.208Z,95858.86
2018-08-25T02:41:50.036Z,95855.70
2018-08-25T02:44:20.528Z,95862.13
2018-08-25T02:46:50.346Z,95865.32
2018-08-25T02:49:20.148Z,95863.06
2018-08-25T02:51:49.970Z,95863.16
2018-08-25T02:54:19.898Z,95858.59
2018-08-25T02:56:49.715Z,95853.63
2018-08-25T02:59:19.525Z,95850.80
2018-08-25T03:01:49.356Z,95858.19
2018-08-25T03:04:19.158Z,95853.02
2018-08-25T03:06:48.966Z,95856.70
2018-08-25T03:09:18.723Z,95848.91
2018-08-25T03:11:48.815Z,95847.53
2018-08-25T03:14:18.615Z,95848.05
2018-08-25T03:16:48.788Z,95848.98
2018-08-25T03:19:18.621Z,95837.90
2018-08-25T03:21:48.474Z,95847.78
2018-08-25T03:24:18.403Z,95842.17
2018-08-25T03:26:48.268Z,95841.83
2018-08-25T03:29:18.169Z,95840.05
2018-08-25T03:31:48.013Z,95838.23
2018-08-25T03:34:17.901Z,95838.05
2018-08-25T03:36:47.656Z,95842.62
2018-08-25T03:39:17.935Z,95843.92
2018-08-25T03:41:47.755Z,95847.00
2018-08-25T03:44:17.590Z,95845.55
2018-08-25T03:46:47.428Z,95841.51
2018-08-25T03:49:17.253Z,95837.72
2018-08-25T03:51:47.181Z,95837.30
2018-08-25T03:54:16.987Z,95842.44
2018-08-25T03:56:46.805Z,95837.83
2018-08-25T03:59:16.646Z,95831.19
2018-08-25T04:01:46.485Z,95828.09
2018-08-25T04:04:16.344Z,95834.19
2018-08-25T04:06:46.130Z,95835.07
2018-08-25T04:09:16.103Z,95840.31
2018-08-25T04:11:45.933Z,95840.66
2018-08-25T04:14:15.754Z,95839.80
2018-08-25T04:16:45.631Z,95840.20
2018-08-25T04:19:20.115Z,95836.08
2018-08-25T04:21:50.508Z,95823.55
2018-08-25T04:24:20.300Z,95818.31
2018-08-25T04:26:50.119Z,95821.73
2018-08-25T04:29:19.957Z,95829.91
2018-08-25T04:31:49.786Z,95824.48
2018-08-25T04:34:19.571Z,95817.20
2018-08-25T04:36:49.411Z,95822.33
2018-08-25T04:39:19.278Z,95826.04
2018-08-25T04:41:49.115Z,95817.09
2018-08-25T04:44:18.906Z,95817.44
2018-08-25T04:46:49.055Z,95810.49
2018-08-25T04:49:18.861Z,95812.64
2018-08-25T04:51:49.403Z,95810.16
2018-08-25T04:54:19.240Z,95818.73
2018-08-25T04:56:49.092Z,95817.95
2018-08-25T04:59:19.207Z,95818.48
2018-08-25T05:01:49.044Z,95818.41
2018-08-25T05:04:19.069Z,95822.45
2018-08-25T05:06:48.911Z,95829.73
2018-08-25T05:09:18.721Z,95820.37
2018-08-25T05:11:48.545Z,95824.30
2018-08-25T05:14:18.398Z,95823.81
2018-08-25T05:16:48.200Z,95820.62
2018-08-25T05:19:18.039Z,95820.10
2018-08-25T05:21:47.870Z,95818.57
2018-08-25T05:24:17.957Z,95817.59
2018-08-25T05:26:47.909Z,95815.64
2018-08-25T05:29:17.737Z,95815.45
2018-08-25T05:31:47.571Z,95818.13
2018-08-25T05:34:17.501Z,95810.05
2018-08-25T05:36:47.425Z,95810.46
2018-08-25T05:39:17.230Z,95806.59
2018-08-25T05:41:47.038Z,95806.00
2018-08-25T05:44:16.925Z,95812.95
2018-08-25T05:46:46.938Z,95817.88
2018-08-25T05:49:16.767Z,95809.60
2018-08-25T05:51:46.572Z,95806.20
2018-08-25T05:54:16.428Z,95809.02
2018-08-25T05:56:46.299Z,95808.48
2018-08-25T05:59:16.769Z,95806.95
2018-08-25T06:01:46.978Z,95807.03
2018-08-25T06:04:16.788Z,95811.69
2018-08-25T06:06:46.642Z,95805.83
2018-08-25T06:09:16.490Z,95809.44
2018-08-25T06:11:46.634Z,95801.19
2018-08-25T06:14:16.462Z,95797.75
2018-08-25T06:16:46.302Z,95799.62
2018-08-25T06:19:16.266Z,95789.13
2018-08-25T06:21:46.524Z,95793.13
2018-08-25T06:24:16.476Z,95795.02
2018-08-25T06:26:46.319Z,95791.55
2018-08-25T06:29:16.193Z,95790.92
2018-08-25T06:31:46.136Z,95794.03
2018-08-25T06:34:16.165Z,95796.28
2018-08-25T06:36:46.036Z,95788.44
2018-08-25T06:39:15.844Z,95794.69
2018-08-25T06:41:45.646Z,95792.83
2018-08-25T06:44:15.390Z,95798.06
2018-08-25T06:46:45.214Z,95799.79
2018-08-25T06:49:15.084Z,95801.80
2018-08-25T06:51:45.008Z,95795.33
2018-08-25T06:54:14.964Z,95795.05
2018-08-25T06:56:44.809Z,95798.22
2018-08-25T06:59:15.207Z,95798.08
2018-08-25T07:01:45.064Z,95797.42
2018-08-25T07:04:14.918Z,95796.55
2018-08-25T07:06:44.840Z,95800.87
2018-08-25T07:09:14.734Z,95795.27
2018-08-25T07:11:44.540Z,95795.00
2018-08-25T07:14:14.374Z,95793.20
2018-08-25T07:16:44.422Z,95798.77
2018-08-25T07:19:14.330Z,95801.61
2018-08-25T07:21:44.217Z,95798.55
2018-08-25T07:24:14.152Z,95799.86
2018-08-25T07:26:43.932Z,95809.41
2018-08-25T07:29:13.990Z,95813.91
2018-08-25T07:31:43.932Z,95806.97
2018-08-25T07:34:13.774Z,95813.11
2018-08-25T07:36:43.594Z,95820.42
2018-08-25T07:39:14.755Z,95816.47
2018-08-25T07:41:44.552Z,95819.00
2018-08-25T07:44:14.542Z,95824.52
2018-08-25T07:46:44.338Z,95825.44
2018-08-25T07:49:14.133Z,95819.80
2018-08-25T07:51:43.902Z,95808.22
2018-08-25T07:54:14.201Z,95815.02
2018-08-25T07:56:43.988Z,95810.72
2018-08-25T07:59:13.908Z,95816.80
2018-08-25T08:01:44.021Z,95821.91
2018-08-25T08:04:13.811Z,95818.38
2018-08-25T08:06:43.940Z,95824.20
2018-08-25T08:09:13.698Z,95829.20
2018-08-25T08:11:43.497Z,95828.19
2018-08-25T08:14:13.782Z,95820.67
2018-08-25T08:16:43.570Z,95820.54
2018-08-25T08:19:13.388Z,95820.89
2018-08-25T08:21:43.318Z,95832.56
2018-08-25T08:24:13.196Z,95830.95
2018-08-25T08:26:42.975Z,95832.22
2018-08-25T08:29:12.856Z,95830.03
2018-08-25T08:31:42.650Z,95835.09
2018-08-25T08:34:12.513Z,95842.81
2018-08-25T08:36:42.363Z,95838.63
2018-08-25T08:39:12.390Z,95841.89
2018-08-25T08:41:42.534Z,95844.31
2018-08-25T08:44:12.612Z,95839.67
2018-08-25T08:46:42.528Z,95843.11
2018-08-25T08:49:12.351Z,95849.23
2018-08-25T08:51:42.148Z,95846.67
2018-08-25T08:54:11.937Z,95850.69
2018-08-25T08:56:41.786Z,95847.81
2018-08-25T08:59:11.929Z,95849.66
2018-08-25T09:01:41.784Z,95859.30
2018-08-25T09:04:11.603Z,95859.39
2018-08-25T09:06:41.398Z,95859.41
2018-08-25T09:09:11.493Z,95864.45
2018-08-25T09:11:41.451Z,95861.28
2018-08-25T09:14:11.971Z,95867.63
2018-08-25T09:16:41.771Z,95863.70
2018-08-25T09:19:11.579Z,95861.54
2018-08-25T09:21:41.648Z,95863.64
2018-08-25T09:24:12.307Z,95859.61
2018-08-25T09:26:42.899Z,95870.55
2018-08-25T09:29:12.891Z,95862.55
2018-08-25T09:31:42.767Z,95854.57
2018-08-25T09:34:12.587Z,95855.37
2018-08-25T09:36:42.765Z,95858.08
2018-08-25T09:39:13.127Z,95862.43
2018-08-25T09:41:43.002Z,95864.03
2018-08-25T09:44:12.985Z,95858.02
2018-08-25T09:46:42.875Z,95858.88
2018-08-25T09:49:12.691Z,95857.59
2018-08-25T09:51:42.493Z,95862.27
2018-08-25T09:54:12.288Z,95873.58
2018-08-25T09:56:42.119Z,95870.34
2018-08-25T09:59:11.974Z,95873.38
2018-08-25T10:01:47.057Z,95871.22
2018-08-25T10:04:16.861Z,95870.81
2018-08-25T10:06:46.791Z,95883.02
2018-08-25T10:09:17.421Z,95878.48
2018-08-25T10:11:48.252Z,95871.27
2018-08-25T10:14:18.049Z,95885.41
2018-08-25T10:16:48.012Z,95885.56
2018-08-25T10:19:18.002Z,95884.69
2018-08-25T10:21:47.951Z,95881.73
2018-08-25T10:24:17.775Z,95886.56
2018-08-25T10:26:48.417Z,95885.27
2018-08-25T10:29:18.206Z,95883.10
2018-08-25T10:31:48.033Z,95891.42
2018-08-25T10:34:17.829Z,95885.23
2018-08-25T10:36:47.659Z,95892.98
2018-08-25T10:39:17.465Z,95888.88
2018-08-25T10:41:47.457Z,95896.95
2018-08-25T10:44:17.379Z,95897.62
2018-08-25T10:46:51.373Z,95898.20
2018-08-25T10:49:21.198Z,95896.48
2018-08-25T10:51:51.522Z,95904.14
2018-08-25T10:54:21.717Z,95898.20
2018-08-25T10:56:51.948Z,95901.92
2018-08-25T10:59:21.771Z,95908.34
2018-08-25T11:01:51.952Z,95908.34
2018-08-25T11:04:21.860Z,95907.53
2018-08-25T11:06:51.655Z,95910.67
2018-08-25T11:09:21.469Z,95908.08
2018-08-25T11:11:51.275Z,95915.45
2018-08-25T11:14:21.123Z,95918.60
2018-08-25T11:16:50.956Z,95909.53
2018-08-25T11:19:21.070Z,95918.37
2018-08-25T11:21:50.855Z,95918.09
2018-08-25T11:24:20.643Z,95919.80
2018-08-25T11:26:50.399Z,95913.06
2018-08-25T11:29:20.279Z,95906.91
2018-08-25T11:31:50.165Z,95907.23
2018-08-25T11:34:19.969Z,95908.63
2018-08-25T11:36:50.257Z,95911.88
2018-08-25T11:39:20.101Z,95914.97
2018-08-25T11:41:49.859Z,95911.56
2018-08-25T11:44:19.663Z,95920.12
2018-08-25T11:46:49.589Z,95912.50
2018-08-25T11:49:19.476Z,95918.15
2018-08-25T11:51:49.737Z,95917.08
2018-08-25T11:54:19.628Z,95909.23
2018-08-25T11:56:49.435Z,95908.45
2018-08-25T11:59:19.890Z,95909.76
2018-08-25T12:01:50.173Z,95901.67
2018-08-25T12:04:20.018Z,95905.13
2018-08-25T12:06:49.879Z,95901.30
2018-08-25T12:09:19.733Z,95898.40
2018-08-25T12:11:50.398Z,95904.20
2018-08-25T12:14:20.197Z,95897.73
2018-08-25T12:16:50.114Z,95900.68
2018-08-25T12:19:19.917Z,95893.48
2018-08-25T12:21:49.803Z,95897.65
2018-08-25T12:24:19.650Z,95902.05
2018-08-25T12:26:50.544Z,95899.02
2018-08-25T12:29:20.416Z,95898.89
2018-08-25T12:31:51.053Z,95893.34
2018-08-25T12:34:21.022Z,95901.27
2018-08-25T12:36:50.937Z,95897.36
2018-08-25T12:39:20.743Z,95901.96
2018-08-25T12:41:50.990Z,95899.47
2018-08-25T12:44:20.786Z,95896.47
2018-08-25T12:46:51.276Z,95891.91
2018-08-25T12:49:21.146Z,95897.56
2018-08-25T12:51:50.856Z,95902.89
2018-08-25T12:54:21.394Z,95905.26
2018-08-25T12:56:51.151Z,95902.70
2018-08-25T12:59:20.907Z,95895.61
2018-08-25T13:01:50.686Z,95903.00
2018-08-25T13:04:22.550Z,95899.91
2018-08-25T13:07:01.222Z,95896.58
2018-08-25T13:09:31.056Z,95899.92
2018-08-25T13:15:37.264Z,95890.07
2018-08-25T13:18:07.338Z,95893.63
2018-08-25T13:20:37.492Z,95889.04
2018-08-25T13:23:07.380Z,95899.91
2018-08-25T13:25:37.236Z,95904.92
2018-08-25T13:28:07.103Z,95895.02
2018-08-25T13:30:37.364Z,95895.02
2018-08-25T13:33:07.582Z,95888.50
2018-08-25T13:35:37.462Z,95898.77
2018-08-25T13:38:07.330Z,95891.88
2018-08-25T13:40:37.402Z,95894.18
2018-08-25T13:43:07.588Z,95892.22
2018-08-25T13:45:37.432Z,95884.86
2018-08-25T13:48:08.205Z,95887.81
2018-08-25T13:50:38.147Z,95885.02
2018-08-25T13:53:08.770Z,95885.75
2018-08-25T13:55:38.700Z,95885.96
2018-08-25T13:58:08.656Z,95886.09
2018-08-25T14:00:39.409Z,95880.47
2018-08-25T14:03:09.279Z,95879.34
2018-08-25T14:05:39.097Z,95880.07
2018-08-25T14:08:10.342Z,95882.42
2018-08-25T14:10:42.388Z,95883.34
2018-08-25T14:13:12.296Z,95873.61
2018-08-25T14:15:42.225Z,95870.17
2018-08-25T14:18:12.073Z,95871.89
2018-08-25T14:20:41.876Z,95869.38
2018-08-25T14:23:11.707Z,95864.67
2018-08-25T14:25:41.617Z,95865.52
2018-08-25T14:28:11.406Z,95860.67
2018-08-25T14:30:41.921Z,95856.61
2018-08-25T14:33:11.907Z,95859.16
2018-08-25T14:35:42.107Z,95857.20
2018-08-25T14:38:12.067Z,95854.51
2018-08-25T14:40:42.081Z,95860.13
2018-08-25T14:43:12.398Z,95856.66
2018-08-25T14:45:42.307Z,95860.38
2018-08-25T14:48:14.182Z,95860.88
2018-08-25T14:50:44.318Z,95859.41
2018-08-25T14:53:14.973Z,95859.89
2018-08-25T14:55:46.215Z,95866.50
2018-08-25T14:58:16.379Z,95863.52
2018-08-25T15:00:46.235Z,95866.69
2018-08-25T15:03:16.103Z,95868.30
2018-08-25T15:05:45.883Z,95870.09
2018-08-25T15:08:15.903Z,95873.67
2018-08-25T15:10:45.739Z,95875.16
2018-08-25T15:13:15.563Z,95873.72
2018-08-25T15:15:45.613Z,95873.20
2018-08-25T15:18:15.469Z,95872.84
2018-08-25T15:20:45.383Z,95864.67
2018-08-25T15:23:15.211Z,95870.39
2018-08-25T15:25:45.151Z,95870.73
2018-08-25T15:28:14.967Z,95866.62
2018-08-25T15:30:45.058Z,95876.41
2018-08-25T15:33:14.950Z,95870.45
2018-08-25T15:35:44.747Z,95865.31
2018-08-25T15:38:14.627Z,95877.07
2018-08-25T15:40:45.078Z,95876.58
2018-08-25T15:43:14.957Z,95871.98
2018-08-25T15:45:45.207Z,95871.09
2018-08-25T15:48:15.183Z,95880.59
2018-08-25T15:50:45.003Z,95880.99
2018-08-25T15:53:14.851Z,95878.65
2018-08-25T15:55:44.721Z,95876.98
2018-08-25T15:58:14.623Z,95876.29
2018-08-25T16:00:44.487Z,95871.58
2018-08-25T16:03:14.283Z,95870.20
2018-08-25T16:05:44.408Z,95869.78
2018-08-25T16:08:14.361Z,95867.58
2018-08-25T16:10:44.179Z,95871.88
2018-08-25T16:13:14.295Z,95867.88
2018-08-25T16:15:44.419Z,95872.17
2018-08-25T16:18:14.265Z,95870.61
2018-08-25T16:20:44.495Z,95873.53
2018-08-25T16:23:14.346Z,95880.20
2018-08-25T16:25:44.433Z,95881.95
2018-08-25T16:28:14.223Z,95891.02
2018-08-25T16:30:44.465Z,95895.36
2018-08-25T16:33:14.609Z,95898.41
2018-08-25T16:35:44.783Z,95906.66
2018-08-25T16:38:14.675Z,95915.69
2018-08-25T16:40:44.657Z,95914.53
2018-08-25T16:43:14.537Z,95911.86
2018-08-25T16:45:44.547Z,95908.84
2018-08-25T16:48:14.534Z,95912.72
2018-08-25T16:50:44.714Z,95908.69
2018-08-25T16:53:14.580Z,95916.45
2018-08-25T16:55:44.563Z,95902.08
2018-08-25T16:58:14.557Z,95897.66
2018-08-25T17:00:44.451Z,95896.99
2018-08-25T17:03:15.285Z,95898.04
2018-08-25T17:05:45.882Z,95897.73
2018-08-25T17:08:15.859Z,95903.36
2018-08-25T17:10:47.257Z,95908.45
2018-08-25T17:13:17.247Z,95907.59
2018-08-25T17:15:48.672Z,95907.59
2018-08-25T17:18:18.519Z,95911.69
2018-08-25T17:21:52.381Z,95910.78
2018-08-25T17:24:22.397Z,95915.73
2018-08-25T17:26:52.335Z,95912.43
2018-08-25T17:29:22.333Z,95916.26
2018-08-25T17:31:52.166Z,95913.19
2018-08-25T17:34:22.815Z,95923.13
2018-08-25T17:36:52.730Z,95924.16
2018-08-25T17:39:23.131Z,95920.09
2018-08-25T17:41:52.999Z,95929.33
2018-08-25T17:44:22.996Z,95922.02
2018-08-25T17:46:53.012Z,95927.23
2018-08-25T17:49:22.921Z,95935.62
2018-08-25T17:51:53.071Z,95935.61
2018-08-25T17:54:22.914Z,95940.31
2018-08-25T17:56:52.895Z,95938.53
2018-08-25T17:59:22.912Z,95946.02
2018-08-25T18:01:52.772Z,95957.84
2018-08-25T18:04:22.688Z,95959.11
2018-08-25T18:06:52.623Z,95958.91
2018-08-25T18:09:53.382Z,95959.00
2018-08-25T18:12:23.756Z,95965.70
2018-08-25T18:14:53.707Z,95959.92
2018-08-25T18:17:23.846Z,95970.36
2018-08-25T18:19:54.089Z,95973.88
2018-08-25T18:22:24.353Z,95973.20
2018-08-25T18:24:54.296Z,95977.34
2018-08-25T18:27:24.372Z,95985.33
2018-08-25T18:29:54.248Z,95986.91
2018-08-25T18:32:24.104Z,95992.97
2018-08-25T18:34:53.946Z,95993.16
2018-08-25T18:37:24.090Z,96002.72
2018-08-25T18:39:54.275Z,96000.98
2018-08-25T18:42:24.474Z,96003.32
2018-08-25T18:44:54.806Z,96010.42
2018-08-25T18:47:24.709Z,96011.74
2018-08-25T18:49:54.768Z,96018.21
2018-08-25T18:52:24.906Z,96023.13
2018-08-25T18:54:55.170Z,96023.96
2018-08-25T18:57:25.868Z,96026.86
2018-08-25T18:59:56.162Z,96031.55
2018-08-25T19:02:26.332Z,96030.73
2018-08-25T19:04:56.384Z,96032.75
2018-08-25T19:07:26.964Z,96042.53
2018-08-25T19:09:57.222Z,96039.58
2018-08-25T19:12:27.306Z,96044.83
2018-08-25T19:14:57.544Z,96037.58
2018-08-25T19:17:27.810Z,96036.80
2018-08-25T19:19:57.971Z,96043.70
2018-08-25T19:22:28.360Z,96046.80
2018-08-25T19:24:58.566Z,96043.69
2018-08-25T19:27:28.803Z,96044.98
2018-08-25T19:29:59.039Z,96047.94
2018-08-25T19:32:29.338Z,96049.30
2018-08-25T19:35:01.068Z,96050.45
2018-08-25T19:37:31.447Z,96046.50
2018-08-25T19:40:01.693Z,96050.16
2018-08-25T19:42:31.990Z,96043.17
2018-08-25T19:45:02.243Z,96049.50
2018-08-25T19:47:32.734Z,96049.81
2018-08-25T19:50:03.092Z,96046.29
2018-08-25T19:52:33.636Z,96054.54
2018-08-25T19:55:03.860Z,96058.86
2018-08-25T19:57:34.404Z,96057.86
2018-08-25T20:00:05.305Z,96050.61
2018-08-25T20:02:35.585Z,96056.62
2018-08-25T20:05:05.840Z,96062.09
2018-08-25T20:07:36.533Z,96069.98
2018-08-25T20:10:06.741Z,96072.15
2018-08-25T20:12:37.061Z,96074.59
2018-08-25T20:15:07.205Z,96065.06
2018-08-25T20:17:37.394Z,96064.27
2018-08-25T20:20:08.213Z,96066.14
2018-08-25T20:22:38.402Z,96061.17
2018-08-25T20:25:09.752Z,96060.09
2018-08-25T20:27:40.814Z,96067.30
2018-08-25T20:30:10.760Z,96056.16
2018-08-25T20:32:40.819Z,96067.56
2018-08-25T20:35:10.796Z,96064.84
2018-08-25T20:37:41.147Z,96074.21
2018-08-25T20:40:11.367Z,96069.73
2018-08-25T20:42:41.909Z,96062.69
2018-08-25T20:45:12.196Z,96068.78
2018-08-25T20:47:42.097Z,96067.79
2018-08-25T20:50:11.993Z,96074.41
2018-08-25T20:52:41.879Z,96075.79
2018-08-25T20:55:11.743Z,96076.78
2018-08-25T20:57:41.600Z,96072.73
2018-08-25T21:00:11.703Z,96067.79
2018-08-25T21:02:41.611Z,96069.16
2018-08-25T21:05:11.503Z,96075.77
2018-08-25T21:07:41.363Z,96074.63
2018-08-25T21:10:11.305Z,96073.28
2018-08-25T21:16:16.895Z,96076.44
2018-08-25T21:18:46.727Z,96085.20
2018-08-25T21:21:16.672Z,96079.52
2018-08-25T21:23:46.496Z,96082.78
2018-08-25T21:26:16.585Z,96080.46
2018-08-25T21:28:47.220Z,96082.55
2018-08-25T21:31:17.440Z,96080.46
2018-08-25T21:33:47.366Z,96085.94
2018-08-25T21:36:17.239Z,96084.25
2018-08-25T21:38:47.161Z,96075.47
2018-08-25T21:41:18.040Z,96081.67
2018-08-25T21:43:47.957Z,96081.19
2018-08-25T21:46:17.888Z,96086.62
2018-08-25T21:48:47.793Z,96083.98
2018-08-25T21:51:17.629Z,96092.27
2018-08-25T21:53:47.615Z,96097.94
2018-08-25T21:56:17.628Z,96100.66
2018-08-25T21:58:47.585Z,96105.86
2018-08-25T22:01:17.433Z,96105.70
2018-08-25T22:03:47.903Z,96108.80
2018-08-25T22:06:17.887Z,96106.22
2018-08-25T22:08:47.715Z,96105.06
2018-08-25T22:11:17.588Z,96106.05
2018-08-25T22:13:47.907Z,96109.61
2018-08-25T22:16:52.585Z,96112.40
2018-08-25T22:19:22.419Z,96111.89
2018-08-25T22:21:52.533Z,96112.52
2018-08-25T22:24:24.058Z,96114.32
2018-08-25T22:26:54.081Z,96115.12
2018-08-25T22:29:23.939Z,96114.94
2018-08-25T22:31:54.196Z,96117.52
2018-08-25T22:34:24.014Z,96122.57
2018-08-25T22:36:54.066Z,96121.00
2018-08-25T22:39:23.881Z,96120.46
2018-08-25T22:41:53.704Z,96128.08
2018-08-25T22:44:23.560Z,96124.98
2018-08-25T22:46:53.571Z,96121.05
2018-08-25T22:49:23.506Z,96125.39
2018-08-25T22:51:53.384Z,96126.93
2018-08-25T22:54:23.218Z,96125.56
2018-08-25T22:56:53.041Z,96128.28
2018-08-25T22:59:23.146Z,96133.54
2018-08-25T23:01:53.092Z,96122.58
2018-08-25T23:04:23.116Z,96131.56
2018-08-25T23:06:53.184Z,96129.86
2018-08-25T23:09:23.013Z,96138.06
2018-08-25T23:11:53.674Z,96133.76
2018-08-25T23:14:23.523Z,96132.22
2018-08-25T23:16:53.470Z,96127.91
2018-08-25T23:19:23.526Z,96135.91
2018-08-25T23:21:53.401Z,96135.70
2018-08-25T23:24:23.298Z,96134.13
2018-08-25T23:26:53.184Z,96132.18
2018-08-25T23:29:23.000Z,96127.66
2018-08-25T23:31:52.852Z,96126.26
2018-08-25T23:34:22.662Z,96131.19
2018-08-25T23:36:52.660Z,96125.52
2018-08-25T23:39:23.868Z,96126.50
2018-08-25T23:41:53.796Z,96120.27
2018-08-25T23:44:23.680Z,96124.56
2018-08-25T23:46:53.825Z,96113.59
2018-08-25T23:49:23.761Z,96109.87
2018-08-25T23:51:53.682Z,96106.59
2018-08-25T23:54:23.640Z,96099.56
2018-08-25T23:56:53.699Z,96105.12
2018-08-25T23:59:23.546Z,96104.53
